createdAt,value
2018-01-21T00:00:36.002Z,1.40
2018-01-21T00:01:41.150Z,1.38
2018-01-21T00:02:47.506Z,1.35
2018-01-21T00:03:52.535Z,1.35
2018-01-21T00:04:57.885Z,1.37
2018-01-21T00:06:02.911Z,1.44
2018-01-21T00:07:08.355Z,1.44
2018-01-21T00:08:13.419Z,1.44
2018-01-21T00:09:18.621Z,1.37
2018-01-21T00:10:23.413Z,1.40
2018-01-21T00:11:28.280Z,1.51
2018-01-21T00:12:33.101Z,1.48
2018-01-21T00:13:37.887Z,1.51
2018-01-21T00:14:43.079Z,1.49
2018-01-21T00:15:49.440Z,1.50
2018-01-21T00:16:54.206Z,1.55
2018-01-21T00:17:59.183Z,1.55
2018-01-21T00:19:04.135Z,1.58
2018-01-21T00:20:08.946Z,1.58
2018-01-21T00:21:14.115Z,1.49
2018-01-21T00:22:23.055Z,1.51
2018-01-21T00:23:27.801Z,1.57
2018-01-21T00:24:32.521Z,1.56
2018-01-21T00:25:37.103Z,1.51
2018-01-21T00:26:41.702Z,1.46
2018-01-21T00:27:46.782Z,1.49
2018-01-21T00:28:51.437Z,1.53
2018-01-21T00:29:56.201Z,1.54
2018-01-21T00:31:01.021Z,1.54
2018-01-21T00:32:05.769Z,1.57
2018-01-21T00:33:10.554Z,1.52
2018-01-21T00:34:15.599Z,1.52
2018-01-21T00:35:20.502Z,1.53
2018-01-21T00:36:25.372Z,1.57
2018-01-21T00:37:30.133Z,1.53
2018-01-21T00:38:34.878Z,1.54
2018-01-21T00:39:39.686Z,1.56
2018-01-21T00:40:44.781Z,1.60
2018-01-21T00:41:49.608Z,1.51
2018-01-21T00:42:54.405Z,1.55
2018-01-21T00:43:59.172Z,1.58
2018-01-21T00:45:03.994Z,1.54
2018-01-21T00:46:08.877Z,1.52
2018-01-21T00:47:13.757Z,1.53
2018-01-21T00:48:18.491Z,1.52
2018-01-21T00:49:23.217Z,1.44
2018-01-21T00:50:27.910Z,1.49
2018-01-21T00:51:32.639Z,1.57
2018-01-21T00:52:37.596Z,1.63
2018-01-21T00:53:42.579Z,1.61
2018-01-21T00:54:47.242Z,1.59
2018-01-21T00:55:51.958Z,1.54
2018-01-21T00:56:56.730Z,1.53
2018-01-21T00:58:01.516Z,1.56
2018-01-21T00:59:06.312Z,1.60
2018-01-21T01:00:11.445Z,1.65
2018-01-21T01:01:16.177Z,1.60
2018-01-21T01:02:20.960Z,1.59
2018-01-21T01:03:25.736Z,1.53
2018-01-21T01:04:30.566Z,1.56
2018-01-21T01:05:35.330Z,1.59
2018-01-21T01:06:40.440Z,1.59
2018-01-21T01:07:45.222Z,1.59
2018-01-21T01:08:50.038Z,1.59
2018-01-21T01:09:54.833Z,1.64
2018-01-21T01:10:59.619Z,1.66
2018-01-21T01:12:04.304Z,1.62
2018-01-21T01:13:09.301Z,1.64
2018-01-21T01:14:14.029Z,1.63
2018-01-21T01:15:18.775Z,1.63
2018-01-21T01:16:23.511Z,1.63
2018-01-21T01:17:28.250Z,1.67
2018-01-21T01:18:32.974Z,1.68
2018-01-21T01:19:37.926Z,1.67
2018-01-21T01:20:42.629Z,1.67
2018-01-21T01:21:47.358Z,1.70
2018-01-21T01:22:52.035Z,1.70
2018-01-21T01:23:56.717Z,1.68
2018-01-21T01:25:01.403Z,1.69
2018-01-21T01:26:06.391Z,1.71
2018-01-21T01:27:11.068Z,1.69
2018-01-21T01:28:15.761Z,1.70
2018-01-21T01:29:20.475Z,1.75
2018-01-21T01:30:25.161Z,1.75
2018-01-21T01:31:29.840Z,1.79
2018-01-21T01:32:34.836Z,1.80
2018-01-21T01:33:39.523Z,1.77
2018-01-21T01:34:44.215Z,1.77
2018-01-21T01:35:48.902Z,1.71
2018-01-21T01:36:53.570Z,1.72
2018-01-21T01:37:58.199Z,1.67
2018-01-21T01:39:03.173Z,1.65
2018-01-21T01:40:07.881Z,1.69
2018-01-21T01:41:12.554Z,1.68
2018-01-21T01:42:17.264Z,1.69
2018-01-21T01:43:21.991Z,1.72
2018-01-21T01:44:26.755Z,1.71
2018-01-21T01:45:31.775Z,1.70
2018-01-21T01:46:36.551Z,1.74
2018-01-21T01:47:41.387Z,1.70
2018-01-21T01:48:50.409Z,1.70
2018-01-21T01:49:55.145Z,1.75
2018-01-21T01:50:59.971Z,1.72
2018-01-21T01:52:04.965Z,1.73
2018-01-21T01:53:09.726Z,1.65
2018-01-21T01:54:14.462Z,1.65
2018-01-21T01:55:19.128Z,1.59
2018-01-21T01:56:23.801Z,1.58
2018-01-21T01:57:28.488Z,1.60
2018-01-21T01:58:33.451Z,1.61
2018-01-21T01:59:38.202Z,1.55
2018-01-21T02:00:42.990Z,1.52
2018-01-21T02:01:47.722Z,1.51
2018-01-21T02:02:52.525Z,1.54
2018-01-21T02:03:57.260Z,1.56
2018-01-21T02:05:02.390Z,1.57
2018-01-21T02:06:07.108Z,1.56
2018-01-21T02:07:11.892Z,1.51
2018-01-21T02:08:16.648Z,1.53
2018-01-21T02:09:21.415Z,1.57
2018-01-21T02:10:26.200Z,1.60
2018-01-21T02:11:31.212Z,1.61
2018-01-21T02:12:35.972Z,1.64
2018-01-21T02:13:40.787Z,1.64
2018-01-21T02:14:45.519Z,1.64
2018-01-21T02:15:50.291Z,1.67
2018-01-21T02:16:54.982Z,1.68
2018-01-21T02:18:00.002Z,1.70
2018-01-21T02:19:04.729Z,1.68
2018-01-21T02:20:09.472Z,1.66
2018-01-21T02:21:14.219Z,1.62
2018-01-21T02:22:18.982Z,1.58
2018-01-21T02:23:23.681Z,1.58
2018-01-21T02:24:28.760Z,1.63
2018-01-21T02:25:33.465Z,1.62
2018-01-21T02:26:38.200Z,1.60
2018-01-21T02:27:42.960Z,1.60
2018-01-21T02:28:47.683Z,1.59
2018-01-21T02:29:52.498Z,1.60
2018-01-21T02:30:57.550Z,1.55
2018-01-21T02:32:02.293Z,1.58
2018-01-21T02:33:07.071Z,1.58
2018-01-21T02:34:11.797Z,1.51
2018-01-21T02:35:16.551Z,1.54
2018-01-21T02:36:21.278Z,1.58
2018-01-21T02:37:26.300Z,1.53
2018-01-21T02:38:31.064Z,1.52
2018-01-21T02:39:35.815Z,1.48
2018-01-21T02:40:40.530Z,1.52
2018-01-21T02:41:45.199Z,1.54
2018-01-21T02:42:50.091Z,1.56
2018-01-21T02:43:55.078Z,1.59
2018-01-21T02:44:59.742Z,1.60
2018-01-21T02:46:04.385Z,1.60
2018-01-21T02:47:09.006Z,1.60
2018-01-21T02:48:13.625Z,1.58
2018-01-21T02:49:18.236Z,1.56
2018-01-21T02:50:23.497Z,1.52
2018-01-21T02:51:28.132Z,1.47
2018-01-21T02:52:32.755Z,1.51
2018-01-21T02:53:37.420Z,1.53
2018-01-21T02:54:42.057Z,1.50
2018-01-21T02:55:46.533Z,1.52
2018-01-21T02:56:51.315Z,1.49
2018-01-21T02:57:55.769Z,1.47
2018-01-21T02:59:00.242Z,1.52
2018-01-21T03:00:04.743Z,1.52
2018-01-21T03:01:09.252Z,1.50
2018-01-21T03:02:13.724Z,1.50
2018-01-21T03:03:18.505Z,1.48
2018-01-21T03:04:23.001Z,1.46
2018-01-21T03:05:27.775Z,1.52
2018-01-21T03:06:32.601Z,1.52
2018-01-21T03:07:37.330Z,1.51
2018-01-21T03:08:42.065Z,1.51
2018-01-21T03:09:47.090Z,1.46
2018-01-21T03:10:51.886Z,1.49
2018-01-21T03:11:56.538Z,1.51
2018-01-21T03:13:01.182Z,1.54
2018-01-21T03:14:06.054Z,1.58
2018-01-21T03:15:10.827Z,1.58
2018-01-21T03:16:15.907Z,1.51
2018-01-21T03:17:20.666Z,1.50
2018-01-21T03:18:25.402Z,1.51
2018-01-21T03:19:30.187Z,1.49
2018-01-21T03:20:34.956Z,1.51
2018-01-21T03:21:39.615Z,1.58
2018-01-21T03:22:44.655Z,1.55
2018-01-21T03:23:49.373Z,1.49
2018-01-21T03:24:54.076Z,1.48
2018-01-21T03:25:58.820Z,1.42
2018-01-21T03:27:03.534Z,1.45
2018-01-21T03:28:08.268Z,1.46
2018-01-21T03:29:13.288Z,1.49
2018-01-21T03:30:18.055Z,1.48
2018-01-21T03:31:23.047Z,1.49
2018-01-21T03:32:27.916Z,1.47
2018-01-21T03:33:32.660Z,1.43
2018-01-21T03:34:37.405Z,1.45
2018-01-21T03:35:42.469Z,1.49
2018-01-21T03:36:47.217Z,1.46
2018-01-21T03:37:51.920Z,1.45
2018-01-21T03:38:56.603Z,1.36
2018-01-21T03:40:01.321Z,1.40
2018-01-21T03:41:05.990Z,1.39
2018-01-21T03:42:11.057Z,1.41
2018-01-21T03:43:15.779Z,1.43
2018-01-21T03:44:20.451Z,1.36
2018-01-21T03:45:25.247Z,1.34
2018-01-21T03:46:29.950Z,1.38
2018-01-21T03:47:34.582Z,1.29
2018-01-21T03:48:39.489Z,1.31
2018-01-21T03:49:44.145Z,1.30
2018-01-21T03:50:48.803Z,1.26
2018-01-21T03:51:53.444Z,1.21
2018-01-21T03:52:58.124Z,1.25
2018-01-21T03:54:02.808Z,1.28
2018-01-21T03:55:07.721Z,1.29
2018-01-21T03:56:13.168Z,1.24
2018-01-21T03:57:17.797Z,1.27
2018-01-21T03:58:22.475Z,1.18
2018-01-21T03:59:27.210Z,1.20
2018-01-21T04:00:31.943Z,1.25
2018-01-21T04:01:36.937Z,1.28
2018-01-21T04:02:41.634Z,1.29
2018-01-21T04:03:46.340Z,1.17
2018-01-21T04:04:51.092Z,1.17
2018-01-21T04:05:55.821Z,1.18
2018-01-21T04:07:00.560Z,1.21
2018-01-21T04:08:05.550Z,1.22
2018-01-21T04:09:10.266Z,1.22
2018-01-21T04:10:15.038Z,1.22
2018-01-21T04:11:19.754Z,1.19
2018-01-21T04:12:24.457Z,1.10
2018-01-21T04:13:29.201Z,1.16
2018-01-21T04:14:34.209Z,1.18
2018-01-21T04:15:38.869Z,1.20
2018-01-21T04:16:43.505Z,1.16
2018-01-21T04:17:48.123Z,1.16
2018-01-21T04:18:52.763Z,1.23
2018-01-21T04:19:57.384Z,1.17
2018-01-21T04:21:02.310Z,1.20
2018-01-21T04:22:06.947Z,1.17
2018-01-21T04:23:11.664Z,1.26
2018-01-21T04:24:16.312Z,1.30
2018-01-21T04:25:20.953Z,1.32
2018-01-21T04:26:25.605Z,1.32
2018-01-21T04:27:30.533Z,1.37
2018-01-21T04:28:35.174Z,1.35
2018-01-21T04:29:39.798Z,1.32
2018-01-21T04:30:44.450Z,1.34
2018-01-21T04:31:50.192Z,1.29
2018-01-21T04:32:54.880Z,1.28
2018-01-21T04:33:59.793Z,1.27
2018-01-21T04:35:04.436Z,1.24
2018-01-21T04:36:09.095Z,1.23
2018-01-21T04:37:13.732Z,1.27
2018-01-21T04:38:18.583Z,1.31
2018-01-21T04:39:23.249Z,1.34
2018-01-21T04:40:28.195Z,1.32
2018-01-21T04:41:33.023Z,1.27
2018-01-21T04:42:37.717Z,1.32
2018-01-21T04:43:42.457Z,1.33
2018-01-21T04:44:47.178Z,1.27
2018-01-21T04:45:51.864Z,1.20
2018-01-21T04:47:06.828Z,1.20
2018-01-21T04:48:11.524Z,1.26
2018-01-21T04:49:16.187Z,1.24
2018-01-21T04:50:20.833Z,1.24
2018-01-21T04:51:25.482Z,1.29
2018-01-21T04:52:30.159Z,1.30
2018-01-21T04:53:35.059Z,1.22
2018-01-21T04:54:39.477Z,1.29
2018-01-21T04:55:43.935Z,1.28
2018-01-21T04:56:48.483Z,1.27
2018-01-21T04:57:53.055Z,1.32
2018-01-21T04:58:57.742Z,1.32
2018-01-21T05:00:02.781Z,1.28
2018-01-21T05:01:07.468Z,1.35
2018-01-21T05:02:12.112Z,1.36
2018-01-21T05:03:16.701Z,1.35
2018-01-21T05:04:21.432Z,1.36
2018-01-21T05:05:26.173Z,1.40
2018-01-21T05:06:31.197Z,1.41
2018-01-21T05:07:35.881Z,1.42
2018-01-21T05:08:40.691Z,1.41
2018-01-21T05:09:45.465Z,1.43
2018-01-21T05:10:50.110Z,1.41
2018-01-21T05:11:54.768Z,1.46
2018-01-21T05:12:59.482Z,1.44
2018-01-21T05:14:04.206Z,1.44
2018-01-21T05:15:08.896Z,1.47
2018-01-21T05:16:13.571Z,1.48
2018-01-21T05:17:18.234Z,1.45
2018-01-21T05:18:22.874Z,1.48
2018-01-21T05:19:27.895Z,1.47
2018-01-21T05:20:32.640Z,1.45
2018-01-21T05:21:37.324Z,1.45
2018-01-21T05:22:42.082Z,1.43
2018-01-21T05:23:46.849Z,1.42
2018-01-21T05:24:51.590Z,1.43
2018-01-21T05:25:56.600Z,1.40
2018-01-21T05:27:01.313Z,1.39
2018-01-21T05:28:06.020Z,1.40
2018-01-21T05:29:10.785Z,1.39
2018-01-21T05:30:15.493Z,1.37
2018-01-21T05:31:20.239Z,1.31
2018-01-21T05:32:25.249Z,1.37
2018-01-21T05:33:29.982Z,1.40
2018-01-21T05:34:34.635Z,1.38
2018-01-21T05:35:39.401Z,1.40
2018-01-21T05:36:44.132Z,1.41
2018-01-21T05:37:48.898Z,1.37
2018-01-21T05:38:53.872Z,1.35
2018-01-21T05:39:58.621Z,1.36
2018-01-21T05:41:03.486Z,1.37
2018-01-21T05:42:08.230Z,1.32
2018-01-21T05:43:12.928Z,1.32
2018-01-21T05:44:17.701Z,1.28
2018-01-21T05:45:22.736Z,1.28
2018-01-21T05:46:27.402Z,1.26
2018-01-21T05:47:32.157Z,1.25
2018-01-21T05:48:36.938Z,1.21
2018-01-21T05:49:41.680Z,1.23
2018-01-21T05:50:46.390Z,1.19
2018-01-21T05:51:51.349Z,1.14
2018-01-21T05:52:55.954Z,1.16
2018-01-21T05:54:00.529Z,1.14
2018-01-21T05:55:05.076Z,1.16
2018-01-21T05:56:09.613Z,1.16
2018-01-21T05:57:14.210Z,1.16
2018-01-21T05:58:19.117Z,1.14
2018-01-21T05:59:23.671Z,1.14
2018-01-21T06:00:28.237Z,1.14
2018-01-21T06:01:32.783Z,1.15
2018-01-21T06:02:37.291Z,1.12
2018-01-21T06:03:41.862Z,1.16
2018-01-21T06:04:46.684Z,1.15
2018-01-21T06:05:51.236Z,1.14
2018-01-21T06:06:55.785Z,1.09
2018-01-21T06:08:00.342Z,1.10
2018-01-21T06:09:05.534Z,1.08
2018-01-21T06:10:10.089Z,1.00
2018-01-21T06:11:14.835Z,0.94
2018-01-21T06:12:19.337Z,0.83
2018-01-21T06:13:23.813Z,0.81
2018-01-21T06:14:28.287Z,0.84
2018-01-21T06:15:32.782Z,0.83
2018-01-21T06:16:37.241Z,0.80
2018-01-21T06:17:41.997Z,0.81
2018-01-21T06:18:46.462Z,0.84
2018-01-21T06:19:51.247Z,0.80
2018-01-21T06:20:56.746Z,0.85
2018-01-21T06:22:01.372Z,0.79
2018-01-21T06:23:05.868Z,0.76
2018-01-21T06:24:10.645Z,0.81
2018-01-21T06:25:15.126Z,0.85
2018-01-21T06:26:19.613Z,0.87
2018-01-21T06:27:24.221Z,0.89
2018-01-21T06:28:28.946Z,0.92
2018-01-21T06:29:33.624Z,0.94
2018-01-21T06:30:38.567Z,0.92
2018-01-21T06:31:43.076Z,0.92
2018-01-21T06:32:47.780Z,0.89
2018-01-21T06:33:52.317Z,0.91
2018-01-21T06:34:56.736Z,0.86
2018-01-21T06:36:01.289Z,0.91
2018-01-21T06:37:06.165Z,0.94
2018-01-21T06:38:10.683Z,0.94
2018-01-21T06:39:15.231Z,0.94
2018-01-21T06:40:19.800Z,0.93
2018-01-21T06:41:24.312Z,0.93
2018-01-21T06:42:28.859Z,0.98
2018-01-21T06:43:33.780Z,0.98
2018-01-21T06:44:38.513Z,0.98
2018-01-21T06:45:44.168Z,0.98
2018-01-21T06:46:48.886Z,0.98
2018-01-21T06:47:53.609Z,0.96
2018-01-21T06:48:58.334Z,0.97
2018-01-21T06:50:03.440Z,0.93
2018-01-21T06:51:08.129Z,0.89
2018-01-21T06:52:12.884Z,0.82
2018-01-21T06:53:17.567Z,0.80
2018-01-21T06:54:22.178Z,0.79
2018-01-21T06:55:26.880Z,0.82
2018-01-21T06:56:31.865Z,0.84
2018-01-21T06:57:36.605Z,0.86
2018-01-21T06:58:41.353Z,0.85
2018-01-21T06:59:45.963Z,0.81
2018-01-21T07:00:50.564Z,0.85
2018-01-21T07:01:55.212Z,0.84
2018-01-21T07:03:00.124Z,0.81
2018-01-21T07:04:04.832Z,0.81
2018-01-21T07:05:09.480Z,0.87
2018-01-21T07:06:14.109Z,0.87
2018-01-21T07:07:18.722Z,0.87
2018-01-21T07:08:23.366Z,0.87
2018-01-21T07:09:28.273Z,0.87
2018-01-21T07:10:32.919Z,0.90
2018-01-21T07:11:37.596Z,0.84
2018-01-21T07:12:42.901Z,0.83
2018-01-21T07:13:47.526Z,0.86
2018-01-21T07:14:52.158Z,0.88
2018-01-21T07:15:57.118Z,0.90
2018-01-21T07:17:01.871Z,0.86
2018-01-21T07:18:06.565Z,0.84
2018-01-21T07:19:11.388Z,0.86
2018-01-21T07:20:16.120Z,0.83
2018-01-21T07:21:22.903Z,0.83
2018-01-21T07:22:27.930Z,0.82
2018-01-21T07:23:32.633Z,0.87
2018-01-21T07:24:37.350Z,0.87
2018-01-21T07:25:42.074Z,0.86
2018-01-21T07:26:46.792Z,0.85
2018-01-21T07:27:51.629Z,0.85
2018-01-21T07:28:56.595Z,0.89
2018-01-21T07:30:01.311Z,0.90
2018-01-21T07:31:06.048Z,0.91
2018-01-21T07:32:10.834Z,0.81
2018-01-21T07:33:15.474Z,0.81
2018-01-21T07:34:20.176Z,0.84
2018-01-21T07:35:24.866Z,0.89
2018-01-21T07:36:29.509Z,0.87
2018-01-21T07:37:34.127Z,0.88
2018-01-21T07:38:38.759Z,0.91
2018-01-21T07:39:43.525Z,0.93
2018-01-21T07:40:48.557Z,0.86
2018-01-21T07:41:53.288Z,0.79
2018-01-21T07:42:58.015Z,0.78
2018-01-21T07:44:02.768Z,0.86
2018-01-21T07:45:07.458Z,0.83
2018-01-21T07:46:12.184Z,0.82
2018-01-21T07:47:17.200Z,0.86
2018-01-21T07:48:21.910Z,0.85
2018-01-21T07:49:26.685Z,0.83
2018-01-21T07:50:31.444Z,0.87
2018-01-21T07:51:36.153Z,0.91
2018-01-21T07:52:40.796Z,0.97
2018-01-21T07:53:45.679Z,0.91
2018-01-21T07:54:50.268Z,0.91
2018-01-21T07:55:54.908Z,0.96
2018-01-21T07:56:59.496Z,0.93
2018-01-21T07:58:04.121Z,0.95
2018-01-21T07:59:08.764Z,0.95
2018-01-21T08:00:13.685Z,0.96
2018-01-21T08:01:18.325Z,0.97
2018-01-21T08:02:23.007Z,0.97
2018-01-21T08:03:27.680Z,0.91
2018-01-21T08:04:32.344Z,0.91
2018-01-21T08:05:37.001Z,0.84
2018-01-21T08:06:42.034Z,0.84
2018-01-21T08:07:46.697Z,0.83
2018-01-21T08:08:51.346Z,0.86
2018-01-21T08:09:56.009Z,0.84
2018-01-21T08:11:00.640Z,0.86
2018-01-21T08:12:05.351Z,0.84
2018-01-21T08:13:10.280Z,0.79
2018-01-21T08:14:14.913Z,0.74
2018-01-21T08:15:19.603Z,0.76
2018-01-21T08:16:24.236Z,0.73
2018-01-21T08:17:28.893Z,0.77
2018-01-21T08:18:33.484Z,0.82
2018-01-21T08:19:38.370Z,0.86
2018-01-21T08:20:42.971Z,0.91
2018-01-21T08:21:47.631Z,0.94
2018-01-21T08:22:52.254Z,0.98
2018-01-21T08:23:56.899Z,1.03
2018-01-21T08:25:01.576Z,1.00
2018-01-21T08:26:06.568Z,1.04
2018-01-21T08:27:11.142Z,1.09
2018-01-21T08:28:15.799Z,1.00
2018-01-21T08:29:20.464Z,1.01
2018-01-21T08:30:25.009Z,1.00
2018-01-21T08:31:29.713Z,1.04
2018-01-21T08:32:34.667Z,1.10
2018-01-21T08:33:40.221Z,1.08
2018-01-21T08:34:49.344Z,1.15
2018-01-21T08:38:00.395Z,1.22
2018-01-21T08:41:13.526Z,1.16
2018-01-21T08:42:22.337Z,1.40
2018-01-21T08:43:27.201Z,1.40
2018-01-21T08:44:32.244Z,1.52
2018-01-21T08:45:37.001Z,1.61
2018-01-21T08:46:41.768Z,1.46
2018-01-21T08:47:46.506Z,1.47
2018-01-21T08:48:51.272Z,1.54
2018-01-21T08:49:56.044Z,1.47
2018-01-21T08:51:01.274Z,1.38
2018-01-21T08:52:06.068Z,1.36
2018-01-21T08:53:10.880Z,1.31
2018-01-21T08:54:15.563Z,1.30
2018-01-21T08:55:20.161Z,1.35
2018-01-21T08:56:24.905Z,1.31
2018-01-21T08:57:30.028Z,1.30
2018-01-21T08:58:34.625Z,1.22
2018-01-21T08:59:39.212Z,1.30
2018-01-21T09:00:43.844Z,1.33
2018-01-21T09:01:48.475Z,1.32
2018-01-21T09:02:53.053Z,1.39
2018-01-21T09:03:57.958Z,1.37
2018-01-21T09:05:02.767Z,1.41
2018-01-21T09:06:07.535Z,1.41
2018-01-21T09:07:12.225Z,1.41
2018-01-21T09:08:16.917Z,1.32
2018-01-21T09:09:21.589Z,1.32
2018-01-21T09:10:26.348Z,1.34
2018-01-21T09:11:31.056Z,1.34
2018-01-21T09:12:35.696Z,1.28
2018-01-21T09:13:40.302Z,1.29
2018-01-21T09:14:45.679Z,1.28
2018-01-21T09:15:50.370Z,1.28
2018-01-21T09:16:55.289Z,1.28
2018-01-21T09:17:59.935Z,1.25
2018-01-21T09:19:04.543Z,1.25
2018-01-21T09:20:09.192Z,1.23
2018-01-21T09:21:13.900Z,1.22
2018-01-21T09:22:18.586Z,1.27
2018-01-21T09:23:23.612Z,1.32
2018-01-21T09:24:28.306Z,1.28
2018-01-21T09:25:32.917Z,1.26
2018-01-21T09:26:37.472Z,1.28
2018-01-21T09:27:42.154Z,1.27
2018-01-21T09:28:46.715Z,1.27
2018-01-21T09:29:51.629Z,1.27
2018-01-21T09:30:56.350Z,1.34
2018-01-21T09:32:00.906Z,1.37
2018-01-21T09:33:05.621Z,1.38
2018-01-21T09:34:10.322Z,1.46
2018-01-21T09:35:15.081Z,1.39
2018-01-21T09:36:20.275Z,1.36
2018-01-21T09:37:25.145Z,1.34
2018-01-21T09:38:29.886Z,1.37
2018-01-21T09:39:34.664Z,1.35
2018-01-21T09:40:39.371Z,1.42
2018-01-21T09:41:44.004Z,1.44
2018-01-21T09:42:49.087Z,1.46
2018-01-21T09:43:53.956Z,1.44
2018-01-21T09:44:58.710Z,1.42
2018-01-21T09:46:03.421Z,1.34
2018-01-21T09:47:08.538Z,1.41
2018-01-21T09:48:13.382Z,1.51
2018-01-21T09:49:18.516Z,1.56
2018-01-21T09:50:23.248Z,1.65
2018-01-21T09:51:28.000Z,1.54
2018-01-21T09:52:32.785Z,1.52
2018-01-21T09:53:37.759Z,1.55
2018-01-21T09:54:42.586Z,1.50
2018-01-21T09:55:47.630Z,1.49
2018-01-21T09:56:52.441Z,1.41
2018-01-21T09:57:57.367Z,1.41
2018-01-21T09:59:02.532Z,1.45
2018-01-21T10:00:07.375Z,1.36
2018-01-21T10:01:12.292Z,1.36
2018-01-21T10:02:17.830Z,1.32
2018-01-21T10:03:22.652Z,1.30
2018-01-21T10:04:28.883Z,1.33
2018-01-21T10:05:33.664Z,1.40
2018-01-21T10:06:40.182Z,1.40
2018-01-21T10:07:45.439Z,1.46
2018-01-21T10:08:51.448Z,1.50
2018-01-21T10:09:57.637Z,1.45
2018-01-21T10:11:02.791Z,1.43
2018-01-21T10:12:09.736Z,1.49
2018-01-21T10:13:15.161Z,1.51
2018-01-21T10:14:20.512Z,1.60
2018-01-21T10:15:25.585Z,1.61
2018-01-21T10:16:32.775Z,1.60
2018-01-21T10:17:38.730Z,1.68
2018-01-21T10:18:47.663Z,1.75
2018-01-21T10:19:55.509Z,1.64
2018-01-21T10:21:02.170Z,1.66
2018-01-21T10:22:07.690Z,1.68
2018-01-21T10:23:13.494Z,1.62
2018-01-21T10:24:21.823Z,1.65
2018-01-21T10:25:28.449Z,1.71
2018-01-21T10:26:34.291Z,1.65
2018-01-21T10:27:39.987Z,1.58
2018-01-21T10:28:47.058Z,1.54
2018-01-21T10:29:53.617Z,1.60
2018-01-21T10:30:59.233Z,1.61
2018-01-21T10:32:04.491Z,1.55
2018-01-21T10:33:11.214Z,1.55
2018-01-21T10:34:18.866Z,1.53
2018-01-21T10:35:27.066Z,1.60
2018-01-21T10:36:33.561Z,1.69
2018-01-21T10:37:41.160Z,1.69
2018-01-21T10:38:48.759Z,1.75
2018-01-21T10:39:56.925Z,1.69
2018-01-21T10:41:05.531Z,1.72
2018-01-21T10:42:13.965Z,1.53
2018-01-21T10:43:21.874Z,1.61
2018-01-21T10:44:29.792Z,1.59
2018-01-21T10:45:36.605Z,1.66
2018-01-21T10:46:43.494Z,1.70
2018-01-21T10:47:51.676Z,1.70
2018-01-21T10:49:01.239Z,1.76
2018-01-21T10:50:08.875Z,1.94
2018-01-21T10:51:16.677Z,2.46
2018-01-21T10:52:22.438Z,2.36
2018-01-21T10:53:30.077Z,2.03
2018-01-21T10:54:37.560Z,1.92
2018-01-21T10:55:42.954Z,1.91
2018-01-21T10:56:50.880Z,1.85
2018-01-21T10:57:57.691Z,1.88
2018-01-21T10:59:06.855Z,1.82
2018-01-21T11:00:13.551Z,1.72
2018-01-21T11:01:21.160Z,1.63
2018-01-21T11:02:30.045Z,1.55
2018-01-21T11:03:37.455Z,1.59
2018-01-21T11:04:44.076Z,1.56
2018-01-21T11:05:50.241Z,1.69
2018-01-21T11:06:57.939Z,1.68
2018-01-21T11:08:06.465Z,1.68
2018-01-21T11:09:14.455Z,1.69
2018-01-21T11:10:23.766Z,1.74
2018-01-21T11:11:31.773Z,1.82
2018-01-21T11:12:40.684Z,2.06
2018-01-21T11:13:48.600Z,2.05
2018-01-21T11:14:56.337Z,2.23
2018-01-21T11:16:04.366Z,2.34
2018-01-21T11:17:12.645Z,2.50
2018-01-21T11:18:20.306Z,2.86
2018-01-21T11:19:27.403Z,2.96
2018-01-21T11:20:34.958Z,3.11
2018-01-21T11:21:43.727Z,3.04
2018-01-21T11:22:50.639Z,3.12
2018-01-21T11:23:56.193Z,3.13
2018-01-21T11:25:03.237Z,3.04
2018-01-21T11:26:11.075Z,2.92
2018-01-21T11:27:18.709Z,3.02
2018-01-21T11:28:29.171Z,2.82
2018-01-21T11:29:38.384Z,2.83
2018-01-21T11:30:46.893Z,2.64
2018-01-21T11:31:54.643Z,2.60
2018-01-21T11:33:00.490Z,2.62
2018-01-21T11:34:10.774Z,2.46
2018-01-21T11:35:20.007Z,2.31
2018-01-21T11:36:28.669Z,2.25
2018-01-21T11:37:39.653Z,2.24
2018-01-21T11:38:49.816Z,2.30
2018-01-21T11:39:59.799Z,2.29
2018-01-21T11:41:05.636Z,2.32
2018-01-21T11:42:13.671Z,2.36
2018-01-21T11:43:21.606Z,2.46
2018-01-21T11:44:29.589Z,2.55
2018-01-21T11:45:38.032Z,2.45
2018-01-21T11:46:46.244Z,2.36
2018-01-21T11:47:54.839Z,2.25
2018-01-21T11:49:02.844Z,2.23
2018-01-21T11:50:10.401Z,2.24
2018-01-21T11:51:20.454Z,2.25
2018-01-21T11:52:29.786Z,2.29
2018-01-21T11:53:38.586Z,2.32
2018-01-21T11:54:52.220Z,2.39
2018-01-21T11:56:02.059Z,2.34
2018-01-21T11:57:09.437Z,2.42
2018-01-21T11:58:22.887Z,2.36
2018-01-21T11:59:32.636Z,2.94
2018-01-21T12:00:41.984Z,3.47
2018-01-21T12:01:52.904Z,3.30
2018-01-21T12:03:02.455Z,3.13
2018-01-21T12:04:11.309Z,2.63
2018-01-21T12:05:20.016Z,2.52
2018-01-21T12:06:28.778Z,2.38
2018-01-21T12:07:36.965Z,2.34
2018-01-21T12:08:48.086Z,2.21
2018-01-21T12:09:57.880Z,2.32
2018-01-21T12:11:08.707Z,2.20
2018-01-21T12:12:17.481Z,2.25
2018-01-21T12:13:32.479Z,2.08
2018-01-21T12:14:42.391Z,2.12
2018-01-21T12:15:53.133Z,2.10
2018-01-21T12:17:04.542Z,2.05
2018-01-21T12:18:13.038Z,2.07
2018-01-21T12:19:20.158Z,2.10
2018-01-21T12:20:31.118Z,2.21
2018-01-21T12:21:43.045Z,2.34
2018-01-21T12:22:53.404Z,2.23
2018-01-21T12:24:05.277Z,2.09
2018-01-21T12:25:15.131Z,2.12
2018-01-21T12:26:21.537Z,2.05
2018-01-21T12:27:30.214Z,2.02
2018-01-21T12:28:40.684Z,2.17
2018-01-21T12:29:53.921Z,2.25
2018-01-21T12:31:03.176Z,2.17
2018-01-21T12:32:14.610Z,2.03
2018-01-21T12:33:22.683Z,1.94
2018-01-21T12:34:31.450Z,1.85
2018-01-21T12:35:40.734Z,1.99
2018-01-21T12:36:52.124Z,1.90
2018-01-21T12:38:01.446Z,1.96
2018-01-21T12:39:12.619Z,1.96
2018-01-21T12:40:24.967Z,1.97
2018-01-21T12:41:35.014Z,1.94
2018-01-21T12:42:44.797Z,1.97
2018-01-21T12:43:54.814Z,1.92
2018-01-21T12:45:06.062Z,1.82
2018-01-21T12:46:15.988Z,1.80
2018-01-21T12:47:27.231Z,1.90
2018-01-21T12:48:35.313Z,1.74
2018-01-21T12:49:43.994Z,1.75
2018-01-21T12:50:58.123Z,1.68
2018-01-21T12:52:08.348Z,1.63
2018-01-21T12:53:18.730Z,1.65
2018-01-21T12:54:31.502Z,1.74
2018-01-21T12:55:47.532Z,1.82
2018-01-21T12:56:58.940Z,1.85
2018-01-21T12:58:07.605Z,1.87
2018-01-21T12:59:17.851Z,1.88
2018-01-21T13:00:30.142Z,1.93
2018-01-21T13:01:38.625Z,1.88
2018-01-21T13:02:48.945Z,1.98
2018-01-21T13:04:00.827Z,1.93
2018-01-21T13:05:11.510Z,1.89
2018-01-21T13:06:21.592Z,1.96
2018-01-21T13:07:35.842Z,1.94
2018-01-21T13:08:46.684Z,1.87
2018-01-21T13:09:57.658Z,1.84
2018-01-21T13:11:07.920Z,1.90
2018-01-21T13:12:16.465Z,1.90
2018-01-21T13:13:27.404Z,2.00
2018-01-21T13:14:35.983Z,1.99
2018-01-21T13:15:44.237Z,1.95
2018-01-21T13:16:54.080Z,1.79
2018-01-21T13:18:07.946Z,1.85
2018-01-21T13:19:19.585Z,1.89
2018-01-21T13:20:30.888Z,1.99
2018-01-21T13:21:41.437Z,1.93
2018-01-21T13:22:49.867Z,1.96
2018-01-21T13:24:04.880Z,1.89
2018-01-21T13:25:13.923Z,1.85
2018-01-21T13:26:23.538Z,1.87
2018-01-21T13:27:32.308Z,1.84
2018-01-21T13:28:44.905Z,1.89
2018-01-21T13:29:53.575Z,1.82
2018-01-21T13:31:06.384Z,1.84
2018-01-21T13:32:25.078Z,1.87
2018-01-21T13:33:33.667Z,1.86
2018-01-21T13:34:44.274Z,1.84
2018-01-21T13:35:51.856Z,1.80
2018-01-21T13:37:03.242Z,1.82
2018-01-21T13:38:13.125Z,1.81
2018-01-21T13:39:23.928Z,1.80
2018-01-21T13:40:34.322Z,1.78
2018-01-21T13:41:43.110Z,1.88
2018-01-21T13:42:52.119Z,1.86
2018-01-21T13:44:04.809Z,1.73
2018-01-21T13:45:14.121Z,1.74
2018-01-21T13:46:23.313Z,1.77
2018-01-21T13:47:32.142Z,1.81
2018-01-21T13:48:40.584Z,1.85
2018-01-21T13:49:50.800Z,1.86
2018-01-21T13:50:58.592Z,1.79
2018-01-21T13:52:07.609Z,1.76
2018-01-21T13:53:17.922Z,1.79
2018-01-21T13:54:26.753Z,1.82
2018-01-21T13:55:36.465Z,1.84
2018-01-21T13:56:46.184Z,1.91
2018-01-21T13:57:56.070Z,1.87
2018-01-21T13:59:05.355Z,1.77
2018-01-21T14:00:17.435Z,1.75
2018-01-21T14:01:29.679Z,1.78
2018-01-21T14:02:41.704Z,1.78
2018-01-21T14:03:52.811Z,1.79
2018-01-21T14:05:02.480Z,1.83
2018-01-21T14:06:14.122Z,1.91
2018-01-21T14:07:25.101Z,1.78
2018-01-21T14:08:37.814Z,1.75
2018-01-21T14:09:52.221Z,1.81
2018-01-21T14:11:03.144Z,1.83
2018-01-21T14:12:12.924Z,1.88
2018-01-21T14:13:27.964Z,1.93
2018-01-21T14:14:37.720Z,1.96
2018-01-21T14:15:46.390Z,1.96
2018-01-21T14:16:55.801Z,1.89
2018-01-21T14:18:05.501Z,1.81
2018-01-21T14:19:13.039Z,1.88
2018-01-21T14:20:23.154Z,1.76
2018-01-21T14:21:36.561Z,1.77
2018-01-21T14:22:47.228Z,1.81
2018-01-21T14:24:01.498Z,1.96
2018-01-21T14:25:10.636Z,2.08
2018-01-21T14:26:21.333Z,2.24
2018-01-21T14:27:31.238Z,2.45
2018-01-21T14:28:42.738Z,2.66
2018-01-21T14:29:53.319Z,2.77
2018-01-21T14:31:04.999Z,2.62
2018-01-21T14:32:14.239Z,2.65
2018-01-21T14:33:26.334Z,2.65
2018-01-21T14:34:35.676Z,2.65
2018-01-21T14:35:49.534Z,2.76
2018-01-21T14:37:01.630Z,2.81
2018-01-21T14:38:11.821Z,2.81
2018-01-21T14:39:19.814Z,2.87
2018-01-21T14:40:29.370Z,2.75
2018-01-21T14:41:39.382Z,2.74
2018-01-21T14:42:52.830Z,2.76
2018-01-21T14:44:04.075Z,2.76
2018-01-21T14:45:16.017Z,2.72